logo
Search for airport 
image banner adimage banner adimage banner ad
image banner ad

BIFL - Fludir

Located in Fludir, Iceland

ICAO - BIFL, IATA -

Data provided by Airmate  

General information

Coordinates: N64°8'34" W20°19'34"
Elevation is 243 feet MSL.
 
View others Airports in South

Operational data

Special qualification required
Current time UTC:
Current local time:
Weather at : BIRK - Reykjavik ( 78 km )
METAR: BIRK 130500Z 35012KT 9999 FEW030 M03/M08 Q1000
TAF: TAF BIRK 130458Z 1306/1406 34008KT 9999 FEW030 TX01/1315Z TNM03/1306Z BECMG 1321/1323 11010KT BECMG 1403/1405 10017G28KT SCT015 BKN030 TEMPO 1405/1406 1500 SN OVC008
View NOTAMs / SUP AIP / TFR affecting this airport [VIEW]
Communications frequencies: [VIEW]

Runways:

RWY identifierQFULength (ft)Width (ft)SurfaceLDA (ft)
0467018GRASS
2267018GRASS

Airport contact information

Address: Fludir Iceland

Satellite view of BIFL